Time;durP1;ratioP1;P1;durP2;ratioP2;P2;SDS_P1;SDS_P2;PMS_P1;PMS_P2;Temp;Humidity;BMP_temperature;BMP_pressure;BME280_temperature;BME280_humidity;BME280_pressure;Samples;Min_cycle;Max_cycle;Signal;HPM_P1;HPM_P2
2023/03/13 00:02:31;;;;;;;;;;;;;;;2.55;72.79;100043.45;106068;1291;59004;-85
2023/03/13 00:05:57;;;;;;;;;;;;;;;2.56;72.88;100036.65;106058;1290;73475;-86
2023/03/13 00:09:24;;;;;;;;;;;;;;;2.58;72.89;100030.38;105363;1291;68817;-86
2023/03/13 00:12:50;;;;;;;;;;;;;;;2.59;73.01;100033.44;105249;1291;72123;-86
2023/03/13 00:16:26;;;;;;;;;;;;;;;2.56;73.05;100034.10;105139;1294;71126;-85
2023/03/13 00:19:52;;;;;;;;;;;;;;;2.55;73.02;100037.49;105359;1294;61241;-86
2023/03/13 00:23:18;;;;;;;;;;;;;;;2.55;73.22;100035.96;105536;1291;73056;-86
2023/03/13 00:26:44;;;;;;;;;;;;;;;2.56;73.34;100036.31;105331;1295;67294;-85
2023/03/13 00:30:10;;;;;;;;;;;;;;;2.57;73.37;100030.88;106056;1292;71398;-86
2023/03/13 00:33:36;;;;;;;;;;;;;;;2.58;73.38;100019.82;105635;1296;59198;-86
2023/03/13 00:37:02;;;;;;;;;;;;;;;2.59;73.40;100014.72;105598;1295;59117;-86
2023/03/13 00:40:29;;;;;;;;;;;;;;;2.62;73.50;100029.00;104581;1301;75009;-85
2023/03/13 00:43:55;;;;;;;;;;;;;;;2.65;73.51;100031.06;104578;1301;67219;-85
2023/03/13 00:47:21;;;;;;;;;;;;;;;2.66;73.48;100021.73;104544;1305;73103;-85
2023/03/13 00:50:47;;;;;;;;;;;;;;;2.64;73.62;100019.14;104842;1301;59340;-86
2023/03/13 00:54:13;;;;;;;;;;;;;;;2.65;73.62;100014.91;104728;1301;59962;-86
2023/03/13 00:57:40;;;;;;;;;;;;;;;2.66;73.67;100015.08;104636;1301;73368;-86
2023/03/13 01:01:06;;;;;;;;;;;;;;;2.67;73.75;100017.64;104567;1300;68767;-86
2023/03/13 01:04:32;;;;;;;;;;;;;;;2.68;73.88;100011.69;104258;1308;71192;-86
2023/03/13 01:07:59;;;;;;;;;;;;;;;2.68;73.83;100006.75;104401;1305;61282;-86
2023/03/13 01:11:28;;;;;;;;;;;;;;;2.67;73.91;100012.70;104413;1304;59492;-85
2023/03/13 01:14:54;;;;;;;;;;;;;;;2.70;74.08;100004.73;104095;1307;75158;-85
2023/03/13 01:18:20;;;;;;;;;;;;;;;2.72;74.08;99999.63;104876;1306;68061;-86
2023/03/13 01:21:47;;;;;;;;;;;;;;;2.75;74.19;99995.91;104484;1304;71347;-86
2023/03/13 01:25:13;;;;;;;;;;;;;;;2.78;74.28;99993.02;104479;1305;61453;-85
2023/03/13 01:28:39;;;;;;;;;;;;;;;2.79;74.23;99988.44;104430;1305;60218;-86
2023/03/13 01:32:06;;;;;;;;;;;;;;;2.81;74.21;99984.02;104393;1303;74683;-86
2023/03/13 01:35:32;;;;;;;;;;;;;;;2.80;74.26;99986.23;105158;1303;68365;-86
2023/03/13 01:38:59;;;;;;;;;;;;;;;2.81;74.34;99988.45;105139;1302;72049;-86
2023/03/13 01:42:25;;;;;;;;;;;;;;;2.83;74.47;99991.52;105599;1300;59000;-86
2023/03/13 01:45:50;;;;;;;;;;;;;;;2.86;74.39;99985.59;105950;1291;59501;-86
2023/03/13 01:48:59;;;;;;;;;;;;;;;2.89;74.46;99989.52;106048;1291;74040;-86
2023/03/13 01:52:29;;;;;;;;;;;;;;;2.91;74.49;99978.80;105654;1290;67212;-86
2023/03/13 01:55:53;;;;;;;;;;;;;;;2.93;74.63;99975.75;105442;1289;71613;-85
2023/03/13 01:59:20;;;;;;;;;;;;;;;2.96;74.58;99973.38;105384;1292;61286;-86
2023/03/13 02:02:46;;;;;;;;;;;;;;;2.98;74.70;99975.44;105359;1289;59374;-86
2023/03/13 02:06:12;;;;;;;;;;;;;;;3.03;74.72;99978.86;105313;1294;75164;-86
2023/03/13 02:09:39;;;;;;;;;;;;;;;3.05;74.82;99972.74;105500;1290;67884;-86
2023/03/13 02:13:05;;;;;;;;;;;;;;;3.07;74.90;99971.55;105466;1292;71140;-88
2023/03/13 02:16:32;;;;;;;;;;;;;;;3.10;74.93;99968.16;105419;1290;61170;-88
2023/03/13 02:20:07;;;;;;;;;;;;;;;3.15;74.94;99967.98;105443;1291;59584;-88
2023/03/13 02:23:33;;;;;;;;;;;;;;;3.19;74.99;99969.52;104986;1296;74490;-88
2023/03/13 02:27:00;;;;;;;;;;;;;;;3.22;75.08;99964.93;104527;1302;68143;-87
2023/03/13 02:30:26;;;;;;;;;;;;;;;3.26;75.17;99964.78;104589;1300;71471;-88
2023/03/13 02:33:53;;;;;;;;;;;;;;;3.30;75.17;99962.58;104467;1301;61348;-87
2023/03/13 02:37:19;;;;;;;;;;;;;;;3.34;75.18;99964.80;104499;1302;60969;-86
2023/03/13 02:40:45;;;;;;;;;;;;;;;3.38;75.28;99962.60;104506;1305;74823;-86
2023/03/13 02:44:12;;;;;;;;;;;;;;;3.42;75.24;99964.83;105225;1300;68593;-86
2023/03/13 02:47:38;;;;;;;;;;;;;;;3.47;75.31;99955.46;104567;1303;71429;-86
2023/03/13 02:51:03;;;;;;;;;;;;;;;3.52;75.34;99946.29;104930;1300;59638;-86
2023/03/13 02:54:29;;;;;;;;;;;;;;;3.56;75.41;99951.05;104605;1303;59435;-86
2023/03/13 02:57:56;;;;;;;;;;;;;;;3.60;75.48;99951.41;104281;1303;73397;-86
2023/03/13 03:01:22;;;;;;;;;;;;;;;3.63;75.56;99956.16;104716;1299;67440;-86
2023/03/13 03:04:48;;;;;;;;;;;;;;;3.66;75.51;99952.75;105072;1293;72788;-86
2023/03/13 03:08:14;;;;;;;;;;;;;;;3.71;75.62;99952.59;105126;1294;61282;-86
2023/03/13 03:11:40;;;;;;;;;;;;;;;3.73;75.66;99943.55;105028;1295;61100;-86
2023/03/13 03:15:06;;;;;;;;;;;;;;;3.76;75.72;99944.23;105029;1297;73568;-86
2023/03/13 03:18:32;;;;;;;;;;;;;;;3.77;75.73;99942.88;97245;1298;5003453;-86
2023/03/13 03:21:59;;;;;;;;;;;;;;;3.78;75.71;99946.63;104358;1306;71505;-86
2023/03/13 03:25:25;;;;;;;;;;;;;;;3.78;75.77;99941.17;104407;1303;61663;-86
2023/03/13 03:28:51;;;;;;;;;;;;;;;3.77;75.78;99932.64;104953;1302;59518;-86
2023/03/13 03:32:17;;;;;;;;;;;;;;;3.78;75.85;99936.05;105199;1303;75079;-86
2023/03/13 03:35:44;;;;;;;;;;;;;;;3.79;75.92;99934.36;104504;1301;67281;-86
2023/03/13 03:39:10;;;;;;;;;;;;;;;3.80;75.94;99932.30;104762;1303;71396;-86
2023/03/13 03:42:36;;;;;;;;;;;;;;;3.81;75.92;99929.07;104524;1300;61137;-86
2023/03/13 03:46:03;;;;;;;;;;;;;;;3.82;76.02;99930.61;104542;1301;59471;-86
2023/03/13 03:49:29;;;;;;;;;;;;;;;3.84;76.06;99925.66;104638;1303;75137;-86
2023/03/13 03:52:56;;;;;;;;;;;;;;;3.85;76.25;99920.88;105148;1301;68690;-86
2023/03/13 03:56:22;;;;;;;;;;;;;;;3.86;76.31;99910.99;104454;1302;72469;-86
2023/03/13 03:59:49;;;;;;;;;;;;;;;3.87;76.29;99903.67;105421;1296;59051;-86
2023/03/13 04:03:15;;;;;;;;;;;;;;;3.91;76.27;99903.16;104899;1300;59540;-86
2023/03/13 04:06:42;;;;;;;;;;;;;;;3.93;76.42;99892.59;104759;1300;73604;-86
2023/03/13 04:10:08;;;;;;;;;;;;;;;3.95;76.43;99880.65;104700;1297;67989;-86
2023/03/13 04:13:34;;;;;;;;;;;;;;;3.97;76.49;99886.27;104669;1301;71413;-86
2023/03/13 04:17:01;;;;;;;;;;;;;;;4.00;76.56;99882.02;104442;1302;59846;-86
2023/03/13 04:20:27;;;;;;;;;;;;;;;4.03;76.59;99879.11;104363;1305;61445;-86
2023/03/13 04:23:54;;;;;;;;;;;;;;;4.05;76.63;99881.66;104466;1300;73753;-86
2023/03/13 04:27:20;;;;;;;;;;;;;;;4.09;76.66;99877.05;105181;1298;67427;-86
2023/03/13 04:30:46;;;;;;;;;;;;;;;4.13;76.75;99875.85;104942;1296;72655;-85
2023/03/13 04:34:13;;;;;;;;;;;;;;;4.17;76.83;99877.17;104885;1297;60775;-86
2023/03/13 04:37:39;;;;;;;;;;;;;;;4.22;76.79;99870.35;105494;1295;60018;-86
2023/03/13 04:41:06;;;;;;;;;;;;;;;4.25;76.92;99864.37;104910;1295;73647;-85
2023/03/13 04:44:32;;;;;;;;;;;;;;;4.28;76.97;99862.14;105018;1296;67383;-86
2023/03/13 04:47:58;;;;;;;;;;;;;;;4.34;77.05;99854.61;105167;1297;73004;-86
2023/03/13 04:51:25;;;;;;;;;;;;;;;4.37;77.09;99852.39;105209;1292;61169;-86
2023/03/13 04:54:51;;;;;;;;;;;;;;;4.43;77.22;99853.73;106062;1291;59382;-86
2023/03/13 04:57:58;;;;;;;;;;;;;;;4.48;77.23;99848.09;106065;1291;73617;-84
2023/03/13 05:00:44;;;;;;;;;;;;;;;4.50;77.13;99845.02;105919;1291;67252;-83
2023/03/13 05:03:30;;;;;;;;;;;;;;;4.52;77.15;99838.52;105989;1291;73071;-82
2023/03/13 05:06:16;;;;;;;;;;;;;;;4.52;77.14;99833.23;105927;1291;59375;-84
2023/03/13 05:09:03;;;;;;;;;;;;;;;4.50;77.17;99837.16;106048;1291;59828;-84
2023/03/13 05:11:49;;;;;;;;;;;;;;;4.50;77.23;99835.97;105952;1290;74540;-85
2023/03/13 05:14:35;;;;;;;;;;;;;;;4.49;77.16;99832.21;106049;1291;67006;-84
2023/03/13 05:17:21;;;;;;;;;;;;;;;4.48;77.22;99828.98;106056;1291;72427;-84
2023/03/13 05:20:10;;;;;;;;;;;;;;;4.47;77.23;99826.26;105939;1292;59238;-84
2023/03/13 05:22:55;;;;;;;;;;;;;;;4.45;77.24;99823.19;105994;1290;59381;-84
2023/03/13 05:25:42;;;;;;;;;;;;;;;4.44;77.25;99828.14;106008;1290;72836;-84
2023/03/13 05:28:28;;;;;;;;;;;;;;;4.43;77.35;99824.56;105968;1291;67251;-84
2023/03/13 05:31:14;;;;;;;;;;;;;;;4.44;77.50;99818.07;106085;1291;71444;-82
2023/03/13 05:34:00;;;;;;;;;;;;;;;4.46;77.52;99812.77;105974;1290;59297;-82
2023/03/13 05:36:46;;;;;;;;;;;;;;;4.49;77.57;99813.45;106020;1291;59021;-82
2023/03/13 05:39:31;;;;;;;;;;;;;;;4.53;77.57;99816.84;106094;1290;73793;-82
2023/03/13 05:42:17;;;;;;;;;;;;;;;4.58;77.65;99813.75;105963;1291;68057;-83
2023/03/13 05:45:03;;;;;;;;;;;;;;;4.61;77.62;99812.54;106104;1291;73906;-82
2023/03/13 05:47:49;;;;;;;;;;;;;;;4.64;77.66;99813.71;105946;1291;59347;-82
2023/03/13 05:50:35;;;;;;;;;;;;;;;4.70;77.75;99810.92;106071;1290;59489;-83
2023/03/13 05:53:21;;;;;;;;;;;;;;;4.74;77.81;99803.91;106085;1291;74387;-82
2023/03/13 05:56:07;;;;;;;;;;;;;;;4.80;77.84;99806.78;105950;1294;67177;-83
2023/03/13 05:58:53;;;;;;;;;;;;;;;4.85;77.85;99795.48;106011;1291;72346;-83
2023/03/13 06:01:39;;;;;;;;;;;;;;;4.90;77.92;99788.11;106024;1291;59197;-83
2023/03/13 06:04:25;;;;;;;;;;;;;;;4.97;77.94;99788.05;105932;1291;59551;-83
2023/03/13 06:07:11;;;;;;;;;;;;;;;5.05;78.07;99781.86;105961;1291;73258;-83
2023/03/13 06:09:57;;;;;;;;;;;;;;;5.14;78.09;99778.21;106037;1288;67876;-83
2023/03/13 06:12:43;;;;;;;;;;;;;;;5.23;78.13;99775.89;105867;1288;71937;-83
2023/03/13 06:15:29;;;;;;;;;;;;;;;5.32;78.05;99776.50;106103;1291;59139;-83
2023/03/13 06:18:15;;;;;;;;;;;;;;;5.41;78.10;99769.08;106140;1288;58678;-82
2023/03/13 06:21:01;;;;;;;;;;;;;;;5.50;78.16;99767.98;106042;1288;74817;-83
2023/03/13 06:23:47;;;;;;;;;;;;;;;5.58;78.17;99764.31;106116;1289;67374;-83
2023/03/13 06:26:33;;;;;;;;;;;;;;;5.67;78.15;99760.30;105993;1290;71312;-83
2023/03/13 06:29:19;;;;;;;;;;;;;;;5.75;78.22;99755.40;106118;1289;59346;-83
2023/03/13 06:32:05;;;;;;;;;;;;;;;5.83;78.22;99749.84;106031;1288;59244;-82
2023/03/13 06:34:51;;;;;;;;;;;;;;;5.90;78.25;99747.05;106124;1290;73437;-83
2023/03/13 06:37:37;;;;;;;;;;;;;;;5.95;78.24;99741.53;106168;1288;67519;-82
2023/03/13 06:40:23;;;;;;;;;;;;;;;6.01;78.22;99736.34;106040;1288;70837;-83
2023/03/13 06:43:09;;;;;;;;;;;;;;;6.06;78.31;99733.20;105553;1288;59051;-79
2023/03/13 06:45:55;;;;;;;;;;;;;;;6.11;78.34;99725.61;105182;1291;58740;-79
2023/03/13 06:48:41;;;;;;;;;;;;;;;6.17;78.40;99730.84;105031;1288;74838;-79
2023/03/13 06:51:27;;;;;;;;;;;;;;;6.22;78.47;99727.35;105009;1289;67385;-79
2023/03/13 06:54:13;;;;;;;;;;;;;;;6.25;78.33;99724.89;105329;1290;71195;-79
2023/03/13 06:56:59;;;;;;;;;;;;;;;6.27;78.46;99725.20;105256;1294;59259;-79
2023/03/13 06:59:45;;;;;;;;;;;;;;;6.30;78.48;99720.71;105030;1288;63198;-79
2023/03/13 07:02:31;;;;;;;;;;;;;;;6.35;78.61;99721.18;105119;1288;74936;-79
2023/03/13 07:05:17;;;;;;;;;;;;;;;6.38;78.62;99720.45;105256;1289;68319;-79
2023/03/13 07:08:04;;;;;;;;;;;;;;;6.42;78.67;99718.85;105008;1288;72036;-79
2023/03/13 07:10:51;;;;;;;;;;;;;;;6.47;78.77;99710.40;105038;1294;61141;-79
2023/03/13 07:13:37;;;;;;;;;;;;;;;6.54;78.64;99705.84;105316;1288;61475;-79
2023/03/13 07:16:23;;;;;;;;;;;;;;;6.64;78.82;99698.85;105182;1288;76025;-79
2023/03/13 07:19:09;;;;;;;;;;;;;;;6.74;78.73;99689.11;105155;1288;67472;-80
2023/03/13 07:21:55;;;;;;;;;;;;;;;6.83;78.71;99689.30;105281;1288;71205;-80
2023/03/13 07:24:42;;;;;;;;;;;;;;;6.90;78.73;99685.93;105375;1288;61293;-79
2023/03/13 07:27:28;;;;;;;;;;;;;;;6.95;78.77;99683.45;105104;1288;59597;-79
2023/03/13 07:30:14;;;;;;;;;;;;;;;6.98;78.75;99680.31;105132;1288;75119;-79
2023/03/13 07:33:00;;;;;;;;;;;;;;;7.02;78.82;99671.52;105329;1288;67127;-80
2023/03/13 07:35:47;;;;;;;;;;;;;;;7.07;78.89;99675.72;105165;1288;72412;-80
2023/03/13 07:38:33;;;;;;;;;;;;;;;7.13;78.83;99672.52;105163;1288;61231;-80
2023/03/13 07:41:19;;;;;;;;;;;;;;;7.18;78.86;99664.55;105142;1288;61020;-79
2023/03/13 07:44:05;;;;;;;;;;;;;;;7.22;78.90;99658.13;105075;1288;74444;-79
2023/03/13 07:46:51;;;;;;;;;;;;;;;7.26;78.93;99656.36;105001;1288;68502;-79
2023/03/13 07:49:41;;;;;;;;;;;;;;;7.31;78.97;99652.98;105062;1288;74020;-80
2023/03/13 07:52:27;;;;;;;;;;;;;;;7.37;79.10;99647.55;105047;1288;60276;-79
2023/03/13 07:55:13;;;;;;;;;;;;;;;7.43;79.09;99647.27;105086;1288;61489;-79
2023/03/13 07:57:59;;;;;;;;;;;;;;;7.49;79.12;99641.52;105003;1294;72151;-79
2023/03/13 08:00:45;;;;;;;;;;;;;;;7.54;79.11;99634.20;105112;1288;68015;-80
2023/03/13 08:03:31;;;;;;;;;;;;;;;7.59;79.11;99629.98;104908;1288;72161;-79
2023/03/13 08:06:19;;;;;;;;;;;;;;;7.63;79.12;99628.02;105141;1288;61248;-79
2023/03/13 08:09:06;;;;;;;;;;;;;;;7.66;79.10;99617.69;104996;1293;60452;-80
2023/03/13 08:11:52;;;;;;;;;;;;;;;7.68;79.16;99617.30;105095;1288;73259;-80
2023/03/13 08:14:38;;;;;;;;;;;;;;;7.70;79.15;99612.11;105067;1291;69131;-79
2023/03/13 08:17:24;;;;;;;;;;;;;;;7.70;79.19;99611.44;104994;1288;72126;-80
2023/03/13 08:20:10;;;;;;;;;;;;;;;7.69;79.16;99614.02;105027;1291;61130;-80
2023/03/13 08:22:56;;;;;;;;;;;;;;;7.69;79.17;99609.55;105099;1288;59776;-79
2023/03/13 08:25:43;;;;;;;;;;;;;;;7.69;79.22;99599.45;105097;1288;74057;-79
2023/03/13 08:28:29;;;;;;;;;;;;;;;7.72;79.36;99597.66;105095;1288;68500;-80
2023/03/13 08:31:17;;;;;;;;;;;;;;;7.72;79.27;99590.27;105015;1293;71214;-80
2023/03/13 08:34:03;;;;;;;;;;;;;;;7.75;79.38;99588.17;104937;1288;59675;-80
2023/03/13 08:36:49;;;;;;;;;;;;;;;7.78;79.40;99587.24;105138;1288;59174;-80
2023/03/13 08:39:35;;;;;;;;;;;;;;;7.81;79.32;99584.42;105072;1288;73466;-80
2023/03/13 08:42:21;;;;;;;;;;;;;;;7.86;79.40;99575.20;105207;1289;67319;-80
2023/03/13 08:45:08;;;;;;;;;;;;;;;7.91;79.32;99560.16;105037;1288;71238;-80
2023/03/13 08:47:54;;;;;;;;;;;;;;;7.97;79.46;99554.55;105150;1288;59295;-80
2023/03/13 08:50:40;;;;;;;;;;;;;;;8.03;79.44;99557.84;105284;1288;61578;-80
2023/03/13 08:53:26;;;;;;;;;;;;;;;8.08;79.45;99556.02;105186;1288;74837;-80
2023/03/13 08:56:13;;;;;;;;;;;;;;;8.11;79.35;99553.20;105098;1288;69183;-80
2023/03/13 08:59:00;;;;;;;;;;;;;;;8.14;79.44;99549.01;105284;1287;72020;-80
2023/03/13 09:01:46;;;;;;;;;;;;;;;8.18;79.42;99539.66;105361;1288;61437;-78
2023/03/13 09:04:34;;;;;;;;;;;;;;;8.24;79.55;99536.59;105403;1288;60419;-85
2023/03/13 09:07:20;;;;;;;;;;;;;;;8.32;79.52;99526.26;105517;1288;73371;-85
2023/03/13 09:10:06;;;;;;;;;;;;;;;8.42;79.57;99519.31;105538;1288;67295;-85
2023/03/13 09:12:58;;;;;;;;;;;;;;;8.55;79.57;99514.02;105463;1288;78602;-86
2023/03/13 09:15:44;;;;;;;;;;;;;;;8.70;79.61;99508.32;105379;1288;59383;-85
2023/03/13 09:18:31;;;;;;;;;;;;;;;8.79;79.57;99499.64;105459;1294;59574;-85
2023/03/13 09:21:48;;;;;;;;;;;;;;;;;;;;;
2023/03/13 09:24:34;;;;;;;;;;;;;;;8.96;79.59;99490.22;105147;1288;67403;-85
2023/03/13 09:27:26;;;;;;;;;;;;;;;9.03;79.37;99477.14;105362;1288;71251;-87
2023/03/13 09:30:30;;;;;;;;;;;;;;;9.07;79.45;99467.56;105438;1288;61142;-86
2023/03/13 09:33:17;;;;;;;;;;;;;;;9.13;79.45;99462.60;105452;1289;59001;-87
2023/03/13 09:36:17;;;;;;;;;;;;;;;9.15;79.45;99458.22;105629;1288;74081;-88
2023/03/13 09:39:10;;;;;;;;;;;;;;;9.16;79.42;99453.55;105418;1288;67180;-84
2023/03/13 09:42:01;;;;;;;;;;;;;;;9.17;79.44;99455.42;105627;1288;73982;-84
2023/03/13 09:44:53;;;;;;;;;;;;;;;9.16;79.50;99457.50;105634;1288;61152;-84
2023/03/13 09:47:51;;;;;;;;;;;;;;;9.12;79.54;99458.84;105684;1288;61260;-85
2023/03/13 09:50:47;;;;;;;;;;;;;;;9.10;79.61;99454.92;105458;1288;73160;-84
2023/03/13 09:53:39;;;;;;;;;;;;;;;9.08;79.54;99447.77;105376;1288;68968;-84
2023/03/13 09:56:30;;;;;;;;;;;;;;;9.05;79.68;99442.88;105474;1288;71411;-84
2023/03/13 09:59:36;;;;;;;;;;;;;;;9.03;79.69;99441.73;105381;1289;59318;-84
2023/03/13 10:02:41;;;;;;;;;;;;;;;9.00;79.72;99453.52;105605;1288;61189;-85
2023/03/13 10:05:38;;;;;;;;;;;;;;;8.97;79.77;99454.78;105570;1289;73245;-84
2023/03/13 10:08:29;;;;;;;;;;;;;;;8.94;79.72;99448.17;105522;1288;67423;-84
2023/03/13 10:11:38;;;;;;;;;;;;;;;8.91;79.80;99441.70;105386;1289;72095;-84
2023/03/13 10:14:29;;;;;;;;;;;;;;;8.91;79.83;99429.19;105503;1289;61342;-84
2023/03/13 10:17:27;;;;;;;;;;;;;;;8.87;79.95;99428.42;105464;1290;59709;-84
2023/03/13 10:20:40;;;;;;;;;;;;;;;8.80;79.89;99422.65;105539;1288;73319;-84
2023/03/13 10:23:59;;;;;;;;;;;;;;;8.73;79.91;99413.90;104913;1294;68471;-85
2023/03/13 10:27:09;;;;;;;;;;;;;;;8.67;80.11;99404.97;104916;1294;71335;-84
2023/03/13 10:30:42;;;;;;;;;;;;;;;8.60;80.04;99403.43;104942;1294;59420;-85
2023/03/13 10:34:07;;;;;;;;;;;;;;;8.54;80.07;99393.81;104861;1296;61125;-84
2023/03/13 10:36:58;;;;;;;;;;;;;;;8.52;80.20;99388.54;104827;1297;73400;-84
2023/03/13 10:39:44;;;;;;;;;;;;;;;8.51;80.34;99388.23;104769;1297;67485;-84
2023/03/13 10:42:34;;;;;;;;;;;;;;;8.48;80.28;99384.70;104828;1298;72115;-84
2023/03/13 10:45:22;;;;;;;;;;;;;;;8.47;80.31;99377.34;104708;1297;59496;-84
2023/03/13 10:48:13;;;;;;;;;;;;;;;8.48;80.44;99372.33;104722;1297;61070;-84
2023/03/13 10:50:59;;;;;;;;;;;;;;;8.48;80.52;99369.59;104635;1303;74550;-84
2023/03/13 10:53:45;;;;;;;;;;;;;;;8.47;80.47;99369.79;104653;1300;68172;-83
2023/03/13 10:56:31;;;;;;;;;;;;;;;8.46;80.60;99358.63;104656;1299;72917;-84
2023/03/13 10:59:24;;;;;;;;;;;;;;;8.46;80.53;99352.80;104704;1297;61865;-84
2023/03/13 11:02:20;;;;;;;;;;;;;;;8.46;80.57;99346.61;105666;1294;59368;-84
2023/03/13 11:05:45;;;;;;;;;;;;;;;8.47;80.56;99349.36;105766;1288;74120;-84
2023/03/13 11:08:35;;;;;;;;;;;;;;;8.50;80.75;99348.41;105001;1294;68647;-84
2023/03/13 11:11:21;;;;;;;;;;;;;;;8.52;80.68;99345.61;104915;1297;71384;-84
2023/03/13 11:14:08;;;;;;;;;;;;;;;8.53;80.88;99339.73;104948;1297;61364;-84
2023/03/13 11:17:15;;;;;;;;;;;;;;;8.55;80.80;99330.05;104899;1298;60026;-84
2023/03/13 11:20:23;;;;;;;;;;;;;;;8.58;80.96;99324.46;104935;1297;73361;-84
2023/03/13 11:23:20;;;;;;;;;;;;;;;8.62;81.04;99323.15;104938;1295;69018;-84
2023/03/13 11:26:09;;;;;;;;;;;;;;;8.61;80.97;99316.84;104883;1300;73111;-84
2023/03/13 11:29:00;;;;;;;;;;;;;;;8.57;81.07;99325.00;104872;1296;62288;-84
2023/03/13 11:31:55;;;;;;;;;;;;;;;8.54;80.96;99322.53;104840;1296;61108;-84
2023/03/13 11:35:04;;;;;;;;;;;;;;;8.49;81.16;99310.48;105541;1295;74309;-84
2023/03/13 11:37:55;;;;;;;;;;;;;;;8.44;81.27;99303.92;104964;1294;67634;-84
2023/03/13 11:40:54;;;;;;;;;;;;;;;8.41;81.28;99311.23;105391;1288;72257;-84
2023/03/13 11:43:55;;;;;;;;;;;;;;;8.37;81.28;99310.64;105382;1290;61094;-84
2023/03/13 11:46:59;;;;;;;;;;;;;;;8.35;81.38;99306.23;105420;1288;61215;-84
2023/03/13 11:49:47;;;;;;;;;;;;;;;8.35;81.63;99300.91;105387;1288;74073;-84
2023/03/13 11:52:53;;;;;;;;;;;;;;;8.36;81.49;99299.70;105458;1288;69050;-84
2023/03/13 11:56:03;;;;;;;;;;;;;;;8.38;81.61;99295.16;105485;1288;73365;-84
2023/03/13 11:59:10;;;;;;;;;;;;;;;8.40;81.74;99288.25;104977;1294;61402;-84
2023/03/13 12:02:04;;;;;;;;;;;;;;;8.42;81.70;99281.66;104692;1298;61212;-84
2023/03/13 12:05:11;;;;;;;;;;;;;;;8.45;81.84;99282.09;104835;1299;74373;-84
2023/03/13 12:08:03;;;;;;;;;;;;;;;8.47;81.93;99278.92;104975;1294;67592;-84
2023/03/13 12:10:59;;;;;;;;;;;;;;;8.50;82.10;99275.58;104866;1294;71285;-84
2023/03/13 12:13:58;;;;;;;;;;;;;;;8.55;82.01;99270.63;104992;1294;59101;-84
2023/03/13 12:17:06;;;;;;;;;;;;;;;8.61;82.13;99262.03;105000;1294;60786;-84
2023/03/13 12:19:57;;;;;;;;;;;;;;;8.66;82.09;99255.19;105069;1299;74919;-84
2023/03/13 12:23:16;;;;;;;;;;;;;;;8.70;82.18;99255.92;104986;1294;69171;-84
2023/03/13 12:26:25;;;;;;;;;;;;;;;8.74;82.16;99252.20;104030;1303;73182;-84
2023/03/13 12:29:30;;;;;;;;;;;;;;;8.76;82.31;99243.72;104846;1305;59583;-84
2023/03/13 12:32:43;;;;;;;;;;;;;;;8.79;82.41;99236.92;104828;1304;59043;-83
2023/03/13 12:35:32;;;;;;;;;;;;;;;8.82;82.27;99238.39;104847;1300;75030;-83
2023/03/13 12:45:25;;;;;;;;;;;;;;;8.84;82.50;99228.67;104107;1304;59824;-84
2023/03/13 12:48:32;;;;;;;;;;;;;;;8.84;82.53;99233.83;103859;1307;59230;-83
2023/03/13 12:51:25;;;;;;;;;;;;;;;8.86;82.60;99209.86;103271;1313;74411;-83
2023/03/13 12:54:32;;;;;;;;;;;;;;;8.88;82.74;99206.88;103315;1314;69229;-83
2023/03/13 12:57:37;;;;;;;;;;;;;;;8.90;82.66;99218.35;103290;1314;72610;-83
2023/03/13 13:00:28;;;;;;;;;;;;;;;8.90;82.75;99224.02;103349;1313;59701;-83
2023/03/13 13:03:37;;;;;;;;;;;;;;;8.92;82.81;99221.56;104031;1308;58783;-83
2023/03/13 13:06:24;;;;;;;;;;;;;;;8.93;82.94;99196.60;103158;1318;73623;-83
2023/03/13 13:09:18;;;;;;;;;;;;;;;8.97;82.74;99196.47;103211;1314;67684;-83
2023/03/13 13:12:18;;;;;;;;;;;;;;;8.99;82.83;99204.31;103395;1305;74285;-83
2023/03/13 13:15:30;;;;;;;;;;;;;;;9.00;82.86;99212.36;103842;1306;61205;-83
2023/03/13 13:18:24;;;;;;;;;;;;;;;9.01;82.89;99203.20;103579;1311;60091;-83
2023/03/13 13:21:22;;;;;;;;;;;;;;;9.05;83.01;99191.05;103589;1311;73932;-83
2023/03/13 13:24:27;;;;;;;;;;;;;;;9.09;83.13;99184.39;103484;1311;69440;-83
2023/03/13 13:27:45;;;;;;;;;;;;;;;9.11;82.96;99183.81;103530;1311;72291;-88
2023/03/13 13:31:11;;;;;;;;;;;;;;;9.15;83.18;99182.45;103315;1313;59723;-86
2023/03/13 13:34:47;;;;;;;;;;;;;;;9.25;83.16;99178.36;103349;1314;61676;-88
2023/03/13 13:38:17;;;;;;;;;;;;;;;9.39;83.51;99172.54;102777;1319;72224;-89
2023/03/13 13:41:46;;;;;;;;;;;;;;;9.52;83.42;99168.45;102655;1323;68412;-87
2023/03/13 13:45:19;;;;;;;;;;;;;;;9.62;83.22;99168.97;103155;1316;72385;-88
2023/03/13 13:48:47;;;;;;;;;;;;;;;9.67;83.33;99169.14;103071;1316;61218;-87
2023/03/13 13:52:20;;;;;;;;;;;;;;;9.74;83.26;99165.28;103215;1314;59461;-87
2023/03/13 13:55:29;;;;;;;;;;;;;;;9.82;83.31;99158.26;103127;1312;73257;-84
2023/03/13 13:58:23;;;;;;;;;;;;;;;9.87;83.39;99163.74;103555;1311;68443;-84
2023/03/13 14:01:15;;;;;;;;;;;;;;;9.91;83.31;99169.27;103494;1311;72419;-84
2023/03/13 14:04:10;;;;;;;;;;;;;;;9.93;83.47;99173.82;103515;1312;61093;-84
2023/03/13 14:06:57;;;;;;;;;;;;;;;9.95;83.37;99172.05;104166;1307;59033;-84
2023/03/13 14:09:49;;;;;;;;;;;;;;;9.94;83.46;99168.61;104197;1305;74324;-84
2023/03/13 14:12:37;;;;;;;;;;;;;;;9.95;83.47;99170.48;104300;1308;70021;-84
2023/03/13 14:15:25;;;;;;;;;;;;;;;9.99;83.43;99166.76;104561;1300;71325;-84
2023/03/13 14:18:31;;;;;;;;;;;;;;;10.03;83.52;99157.83;104766;1295;61195;-84
2023/03/13 14:21:23;;;;;;;;;;;;;;;10.07;83.63;99161.45;104520;1300;61796;-84
2023/03/13 14:24:13;;;;;;;;;;;;;;;10.12;83.67;99148.55;104428;1301;74198;-84
2023/03/13 14:26:59;;;;;;;;;;;;;;;10.17;83.69;99145.40;104586;1303;69506;-84
2023/03/13 14:30:01;;;;;;;;;;;;;;;10.24;83.69;99151.20;104478;1300;71441;-84
2023/03/13 14:32:47;;;;;;;;;;;;;;;10.33;83.81;99142.95;104863;1294;59586;-84
2023/03/13 14:35:33;;;;;;;;;;;;;;;10.39;83.66;99139.45;104876;1294;59307;-84
2023/03/13 14:38:21;;;;;;;;;;;;;;;10.42;83.65;99139.09;104899;1294;73513;-84
2023/03/13 14:41:21;;;;;;;;;;;;;;;10.45;83.73;99138.16;104799;1300;67373;-84
2023/03/13 14:44:14;;;;;;;;;;;;;;;10.49;83.71;99129.02;104882;1294;71219;-84
2023/03/13 14:47:06;;;;;;;;;;;;;;;10.54;83.70;99121.42;104781;1294;61275;-84
2023/03/13 14:49:57;;;;;;;;;;;;;;;10.58;83.69;99120.90;104862;1294;59495;-84
2023/03/13 14:52:45;;;;;;;;;;;;;;;10.62;83.88;99115.59;104950;1294;73654;-84
2023/03/13 14:55:33;;;;;;;;;;;;;;;10.65;83.80;99120.29;104880;1294;67211;-84
2023/03/13 14:58:19;;;;;;;;;;;;;;;10.68;83.77;99127.05;104950;1288;71156;-84
2023/03/13 15:01:23;;;;;;;;;;;;;;;10.71;83.90;99125.37;105484;1290;62403;-84
2023/03/13 15:04:09;;;;;;;;;;;;;;;10.77;83.85;99123.11;105370;1288;61371;-84
2023/03/13 15:07:02;;;;;;;;;;;;;;;10.79;83.93;99116.08;105435;1288;73994;-84
2023/03/13 15:09:49;;;;;;;;;;;;;;;10.85;83.98;99118.27;105328;1291;67253;-84
2023/03/13 15:12:41;;;;;;;;;;;;;;;10.90;83.90;99116.34;105360;1288;73098;-84
2023/03/13 15:15:27;;;;;;;;;;;;;;;10.95;83.96;99113.35;105257;1288;59557;-84
2023/03/13 15:18:16;;;;;;;;;;;;;;;10.99;83.96;99117.48;105383;1292;60578;-84
2023/03/13 15:21:11;;;;;;;;;;;;;;;11.01;84.00;99119.15;105387;1288;75045;-85
2023/03/13 15:24:09;;;;;;;;;;;;;;;11.00;83.86;99111.59;105502;1288;68977;-84
2023/03/13 15:26:55;;;;;;;;;;;;;;;11.01;83.88;99112.77;105404;1289;73970;-84
2023/03/13 15:30:01;;;;;;;;;;;;;;;10.99;83.90;99115.42;105578;1288;61236;-87
2023/03/13 15:33:30;;;;;;;;;;;;;;;10.99;84.01;99110.42;105080;1298;61131;-87
2023/03/13 15:36:56;;;;;;;;;;;;;;;11.00;83.98;99111.77;105051;1297;75239;-87
2023/03/13 15:40:23;;;;;;;;;;;;;;;11.03;84.01;99109.37;105368;1297;69687;-88
2023/03/13 15:43:54;;;;;;;;;;;;;;;11.08;84.05;99114.02;104499;1306;72519;-88
2023/03/13 15:47:18;;;;;;;;;;;;;;;11.11;83.86;99117.31;104890;1303;59497;-87
2023/03/13 15:50:44;;;;;;;;;;;;;;;11.13;83.99;99111.21;104909;1305;59246;-87
2023/03/13 15:54:10;;;;;;;;;;;;;;;11.13;83.89;99106.73;104321;1306;74092;-86
2023/03/13 15:57:39;;;;;;;;;;;;;;;11.12;83.94;99104.50;104322;1304;67178;-88
2023/03/13 16:01:05;;;;;;;;;;;;;;;11.13;83.96;99100.02;104324;1303;73036;-88